sensor_id;sensor_type;location;lat;lon;timestamp;P1;durP1;ratioP1;P2;durP2;ratioP2
10212;SDS011;5150;51.400;6.692;2022-11-20T00:03:12;12.68;;;10.32;;
10212;SDS011;5150;51.400;6.692;2022-11-20T00:06:36;12.90;;;8.40;;
10212;SDS011;5150;51.400;6.692;2022-11-20T00:09:59;10.63;;;8.88;;
10212;SDS011;5150;51.400;6.692;2022-11-20T00:13:22;13.23;;;9.13;;
10212;SDS011;5150;51.400;6.692;2022-11-20T00:16:45;11.18;;;8.85;;
10212;SDS011;5150;51.400;6.692;2022-11-20T00:20:09;13.60;;;9.10;;
10212;SDS011;5150;51.400;6.692;2022-11-20T00:23:37;11.93;;;9.63;;
10212;SDS011;5150;51.400;6.692;2022-11-20T00:27:00;13.98;;;8.50;;
10212;SDS011;5150;51.400;6.692;2022-11-20T00:30:22;10.63;;;8.27;;
10212;SDS011;5150;51.400;6.692;2022-11-20T00:33:46;10.82;;;9.25;;
10212;SDS011;5150;51.400;6.692;2022-11-20T00:37:09;10.50;;;8.23;;
10212;SDS011;5150;51.400;6.692;2022-11-20T00:40:33;10.23;;;8.05;;
10212;SDS011;5150;51.400;6.692;2022-11-20T00:43:56;9.77;;;7.95;;
10212;SDS011;5150;51.400;6.692;2022-11-20T00:47:19;9.43;;;8.00;;
10212;SDS011;5150;51.400;6.692;2022-11-20T00:50:42;12.63;;;9.15;;
10212;SDS011;5150;51.400;6.692;2022-11-20T00:54:05;11.50;;;9.20;;
10212;SDS011;5150;51.400;6.692;2022-11-20T00:57:29;9.02;;;8.13;;
10212;SDS011;5150;51.400;6.692;2022-11-20T01:00:52;9.20;;;7.82;;
10212;SDS011;5150;51.400;6.692;2022-11-20T01:04:15;10.32;;;7.57;;
10212;SDS011;5150;51.400;6.692;2022-11-20T01:07:38;11.32;;;8.20;;
10212;SDS011;5150;51.400;6.692;2022-11-20T01:11:01;8.98;;;7.72;;
10212;SDS011;5150;51.400;6.692;2022-11-20T01:14:26;14.52;;;9.43;;
10212;SDS011;5150;51.400;6.692;2022-11-20T01:17:49;10.57;;;7.55;;
10212;SDS011;5150;51.400;6.692;2022-11-20T01:21:13;11.10;;;8.45;;
10212;SDS011;5150;51.400;6.692;2022-11-20T01:24:37;13.18;;;7.72;;
10212;SDS011;5150;51.400;6.692;2022-11-20T01:28:00;9.00;;;7.43;;
10212;SDS011;5150;51.400;6.692;2022-11-20T01:31:25;11.23;;;7.53;;
10212;SDS011;5150;51.400;6.692;2022-11-20T01:34:49;11.25;;;7.70;;
10212;SDS011;5150;51.400;6.692;2022-11-20T01:38:12;8.88;;;8.00;;
10212;SDS011;5150;51.400;6.692;2022-11-20T01:41:36;10.23;;;7.43;;
10212;SDS011;5150;51.400;6.692;2022-11-20T01:49:31;7.75;;;6.93;;
10212;SDS011;5150;51.400;6.692;2022-11-20T01:52:59;8.85;;;7.40;;
10212;SDS011;5150;51.400;6.692;2022-11-20T01:56:24;10.20;;;7.18;;
10212;SDS011;5150;51.400;6.692;2022-11-20T01:59:50;7.78;;;6.55;;
10212;SDS011;5150;51.400;6.692;2022-11-20T02:03:19;11.32;;;7.35;;
10212;SDS011;5150;51.400;6.692;2022-11-20T02:06:45;9.32;;;7.28;;
10212;SDS011;5150;51.400;6.692;2022-11-20T02:10:10;9.63;;;7.38;;
10212;SDS011;5150;51.400;6.692;2022-11-20T02:13:33;7.93;;;6.25;;
10212;SDS011;5150;51.400;6.692;2022-11-20T02:17:06;7.35;;;6.63;;
10212;SDS011;5150;51.400;6.692;2022-11-20T02:20:30;9.18;;;7.45;;
10212;SDS011;5150;51.400;6.692;2022-11-20T02:24:07;10.27;;;7.25;;
10212;SDS011;5150;51.400;6.692;2022-11-20T02:27:33;9.30;;;7.75;;
10212;SDS011;5150;51.400;6.692;2022-11-20T02:30:56;8.90;;;6.50;;
10212;SDS011;5150;51.400;6.692;2022-11-20T02:34:19;8.05;;;6.78;;
10212;SDS011;5150;51.400;6.692;2022-11-20T02:37:42;8.05;;;7.25;;
10212;SDS011;5150;51.400;6.692;2022-11-20T02:41:08;8.00;;;7.10;;
10212;SDS011;5150;51.400;6.692;2022-11-20T02:44:30;8.27;;;6.20;;
10212;SDS011;5150;51.400;6.692;2022-11-20T02:47:53;6.68;;;6.03;;
10212;SDS011;5150;51.400;6.692;2022-11-20T02:51:16;7.85;;;7.05;;
10212;SDS011;5150;51.400;6.692;2022-11-20T02:54:39;7.57;;;6.85;;
10212;SDS011;5150;51.400;6.692;2022-11-20T02:58:03;7.80;;;6.90;;
10212;SDS011;5150;51.400;6.692;2022-11-20T03:01:26;13.32;;;7.15;;
10212;SDS011;5150;51.400;6.692;2022-11-20T03:04:49;6.90;;;6.20;;
10212;SDS011;5150;51.400;6.692;2022-11-20T03:08:12;8.07;;;6.63;;
10212;SDS011;5150;51.400;6.692;2022-11-20T03:11:35;7.30;;;6.65;;
10212;SDS011;5150;51.400;6.692;2022-11-20T03:14:59;9.27;;;7.85;;
10212;SDS011;5150;51.400;6.692;2022-11-20T03:18:22;8.77;;;6.78;;
10212;SDS011;5150;51.400;6.692;2022-11-20T03:21:45;6.35;;;5.75;;
10212;SDS011;5150;51.400;6.692;2022-11-20T03:25:08;7.50;;;6.80;;
10212;SDS011;5150;51.400;6.692;2022-11-20T03:28:31;6.90;;;6.22;;
10212;SDS011;5150;51.400;6.692;2022-11-20T03:31:56;7.20;;;6.50;;
10212;SDS011;5150;51.400;6.692;2022-11-20T03:35:18;8.40;;;6.00;;
10212;SDS011;5150;51.400;6.692;2022-11-20T03:38:42;7.10;;;6.40;;
10212;SDS011;5150;51.400;6.692;2022-11-20T03:42:05;6.60;;;6.00;;
10212;SDS011;5150;51.400;6.692;2022-11-20T03:45:49;6.78;;;5.60;;
10212;SDS011;5150;51.400;6.692;2022-11-20T03:49:13;6.65;;;5.80;;
10212;SDS011;5150;51.400;6.692;2022-11-20T03:52:36;6.78;;;6.13;;
10212;SDS011;5150;51.400;6.692;2022-11-20T03:55:59;6.38;;;5.40;;
10212;SDS011;5150;51.400;6.692;2022-11-20T03:59:22;5.68;;;5.18;;
10212;SDS011;5150;51.400;6.692;2022-11-20T04:02:45;6.47;;;5.88;;
10212;SDS011;5150;51.400;6.692;2022-11-20T04:06:10;7.68;;;6.22;;
10212;SDS011;5150;51.400;6.692;2022-11-20T04:09:34;6.05;;;5.45;;
10212;SDS011;5150;51.400;6.692;2022-11-20T04:12:57;6.88;;;6.20;;
10212;SDS011;5150;51.400;6.692;2022-11-20T04:16:20;7.22;;;5.95;;
10212;SDS011;5150;51.400;6.692;2022-11-20T04:19:44;10.30;;;7.18;;
10212;SDS011;5150;51.400;6.692;2022-11-20T04:23:09;8.60;;;6.07;;
10212;SDS011;5150;51.400;6.692;2022-11-20T04:26:32;6.70;;;5.97;;
10212;SDS011;5150;51.400;6.692;2022-11-20T04:29:55;8.25;;;5.90;;
10212;SDS011;5150;51.400;6.692;2022-11-20T04:33:18;7.05;;;6.35;;
10212;SDS011;5150;51.400;6.692;2022-11-20T04:36:41;7.90;;;5.97;;
10212;SDS011;5150;51.400;6.692;2022-11-20T04:40:05;7.03;;;6.13;;
10212;SDS011;5150;51.400;6.692;2022-11-20T04:43:29;7.53;;;6.13;;
10212;SDS011;5150;51.400;6.692;2022-11-20T04:46:52;5.97;;;5.55;;
10212;SDS011;5150;51.400;6.692;2022-11-20T04:50:15;8.10;;;6.63;;
10212;SDS011;5150;51.400;6.692;2022-11-20T04:53:38;7.38;;;5.85;;
10212;SDS011;5150;51.400;6.692;2022-11-20T04:57:02;7.18;;;6.47;;
10212;SDS011;5150;51.400;6.692;2022-11-20T05:00:31;6.70;;;6.07;;
10212;SDS011;5150;51.400;6.692;2022-11-20T05:03:54;7.97;;;6.10;;
10212;SDS011;5150;51.400;6.692;2022-11-20T05:07:17;6.30;;;5.55;;
10212;SDS011;5150;51.400;6.692;2022-11-20T05:10:40;6.22;;;5.63;;
10212;SDS011;5150;51.400;6.692;2022-11-20T05:14:05;5.57;;;5.07;;
10212;SDS011;5150;51.400;6.692;2022-11-20T05:17:27;5.68;;;5.13;;
10212;SDS011;5150;51.400;6.692;2022-11-20T05:20:54;5.97;;;5.38;;
10212;SDS011;5150;51.400;6.692;2022-11-20T05:24:19;5.63;;;5.00;;
10212;SDS011;5150;51.400;6.692;2022-11-20T05:27:42;6.45;;;5.85;;
10212;SDS011;5150;51.400;6.692;2022-11-20T05:31:06;5.97;;;5.28;;
10212;SDS011;5150;51.400;6.692;2022-11-20T05:34:31;6.03;;;5.53;;
10212;SDS011;5150;51.400;6.692;2022-11-20T05:37:54;5.93;;;5.43;;
10212;SDS011;5150;51.400;6.692;2022-11-20T05:41:17;6.78;;;5.82;;
10212;SDS011;5150;51.400;6.692;2022-11-20T05:44:41;5.57;;;4.88;;
10212;SDS011;5150;51.400;6.692;2022-11-20T05:48:06;4.90;;;4.45;;
10212;SDS011;5150;51.400;6.692;2022-11-20T05:51:29;5.28;;;4.78;;
10212;SDS011;5150;51.400;6.692;2022-11-20T05:54:52;5.55;;;5.03;;
10212;SDS011;5150;51.400;6.692;2022-11-20T05:58:14;5.53;;;5.05;;
10212;SDS011;5150;51.400;6.692;2022-11-20T06:01:37;5.65;;;5.07;;
10212;SDS011;5150;51.400;6.692;2022-11-20T06:05:02;6.78;;;5.97;;
10212;SDS011;5150;51.400;6.692;2022-11-20T06:08:25;6.28;;;5.13;;
10212;SDS011;5150;51.400;6.692;2022-11-20T06:11:48;5.68;;;5.18;;
10212;SDS011;5150;51.400;6.692;2022-11-20T06:15:11;5.65;;;5.13;;
10212;SDS011;5150;51.400;6.692;2022-11-20T06:18:34;5.97;;;5.40;;
10212;SDS011;5150;51.400;6.692;2022-11-20T06:21:58;6.55;;;5.07;;
10212;SDS011;5150;51.400;6.692;2022-11-20T06:25:21;5.28;;;4.78;;
10212;SDS011;5150;51.400;6.692;2022-11-20T06:28:44;6.10;;;4.60;;
10212;SDS011;5150;51.400;6.692;2022-11-20T06:32:07;6.40;;;5.82;;
10212;SDS011;5150;51.400;6.692;2022-11-20T06:35:30;5.28;;;4.78;;
10212;SDS011;5150;51.400;6.692;2022-11-20T06:38:54;5.47;;;4.97;;
10212;SDS011;5150;51.400;6.692;2022-11-20T06:42:17;5.35;;;4.90;;
10212;SDS011;5150;51.400;6.692;2022-11-20T06:45:40;6.40;;;5.80;;
10212;SDS011;5150;51.400;6.692;2022-11-20T06:49:03;5.57;;;5.07;;
10212;SDS011;5150;51.400;6.692;2022-11-20T06:52:27;5.25;;;4.75;;
10212;SDS011;5150;51.400;6.692;2022-11-20T06:55:51;5.38;;;4.95;;
10212;SDS011;5150;51.400;6.692;2022-11-20T06:59:14;4.97;;;4.50;;
10212;SDS011;5150;51.400;6.692;2022-11-20T07:02:37;5.45;;;5.03;;
10212;SDS011;5150;51.400;6.692;2022-11-20T07:06:00;5.53;;;5.03;;
10212;SDS011;5150;51.400;6.692;2022-11-20T07:09:23;5.68;;;5.18;;
10212;SDS011;5150;51.400;6.692;2022-11-20T07:12:50;5.65;;;5.15;;
10212;SDS011;5150;51.400;6.692;2022-11-20T07:16:14;6.05;;;5.22;;
10212;SDS011;5150;51.400;6.692;2022-11-20T07:19:40;5.50;;;5.00;;
10212;SDS011;5150;51.400;6.692;2022-11-20T07:23:04;4.75;;;4.35;;
10212;SDS011;5150;51.400;6.692;2022-11-20T07:26:26;5.30;;;4.82;;
10212;SDS011;5150;51.400;6.692;2022-11-20T07:29:51;5.35;;;4.82;;
10212;SDS011;5150;51.400;6.692;2022-11-20T07:33:14;5.63;;;5.13;;
10212;SDS011;5150;51.400;6.692;2022-11-20T07:36:37;5.28;;;4.63;;
10212;SDS011;5150;51.400;6.692;2022-11-20T07:40:00;6.20;;;5.60;;
10212;SDS011;5150;51.400;6.692;2022-11-20T07:43:23;5.13;;;4.65;;
10212;SDS011;5150;51.400;6.692;2022-11-20T07:46:48;6.00;;;4.28;;
10212;SDS011;5150;51.400;6.692;2022-11-20T07:50:11;5.25;;;4.75;;
10212;SDS011;5150;51.400;6.692;2022-11-20T07:53:34;6.40;;;5.00;;
10212;SDS011;5150;51.400;6.692;2022-11-20T07:56:57;5.78;;;4.85;;
10212;SDS011;5150;51.400;6.692;2022-11-20T08:00:20;7.40;;;5.57;;
10212;SDS011;5150;51.400;6.692;2022-11-20T08:03:45;5.53;;;5.03;;
10212;SDS011;5150;51.400;6.692;2022-11-20T08:07:08;5.28;;;4.88;;
10212;SDS011;5150;51.400;6.692;2022-11-20T08:10:31;5.47;;;4.97;;
10212;SDS011;5150;51.400;6.692;2022-11-20T08:13:53;6.10;;;5.32;;
10212;SDS011;5150;51.400;6.692;2022-11-20T08:17:34;5.15;;;4.75;;
10212;SDS011;5150;51.400;6.692;2022-11-20T08:21:00;5.80;;;5.05;;
10212;SDS011;5150;51.400;6.692;2022-11-20T08:24:24;6.13;;;5.30;;
10212;SDS011;5150;51.400;6.692;2022-11-20T08:27:47;10.35;;;8.70;;
10212;SDS011;5150;51.400;6.692;2022-11-20T08:31:10;21.42;;;10.23;;
10212;SDS011;5150;51.400;6.692;2022-11-20T08:34:33;37.03;;;9.98;;
10212;SDS011;5150;51.400;6.692;2022-11-20T08:37:58;32.00;;;12.15;;
10212;SDS011;5150;51.400;6.692;2022-11-20T08:41:21;40.10;;;12.48;;
10212;SDS011;5150;51.400;6.692;2022-11-20T08:44:48;28.85;;;10.00;;
10212;SDS011;5150;51.400;6.692;2022-11-20T08:48:11;34.45;;;11.10;;
10212;SDS011;5150;51.400;6.692;2022-11-20T08:51:34;29.33;;;9.45;;
10212;SDS011;5150;51.400;6.692;2022-11-20T08:54:58;23.48;;;9.23;;
10212;SDS011;5150;51.400;6.692;2022-11-20T08:58:21;15.65;;;8.75;;
10212;SDS011;5150;51.400;6.692;2022-11-20T09:01:44;27.00;;;8.77;;
10212;SDS011;5150;51.400;6.692;2022-11-20T09:05:07;21.80;;;7.80;;
10212;SDS011;5150;51.400;6.692;2022-11-20T09:08:30;19.25;;;8.65;;
10212;SDS011;5150;51.400;6.692;2022-11-20T09:11:55;21.10;;;8.50;;
10212;SDS011;5150;51.400;6.692;2022-11-20T09:15:18;21.73;;;8.25;;
10212;SDS011;5150;51.400;6.692;2022-11-20T09:18:41;23.60;;;8.85;;
10212;SDS011;5150;51.400;6.692;2022-11-20T09:22:04;18.02;;;7.80;;
10212;SDS011;5150;51.400;6.692;2022-11-20T09:25:27;17.10;;;7.90;;
10212;SDS011;5150;51.400;6.692;2022-11-20T09:28:51;15.43;;;7.65;;
10212;SDS011;5150;51.400;6.692;2022-11-20T09:32:18;13.80;;;8.02;;
10212;SDS011;5150;51.400;6.692;2022-11-20T09:35:41;15.85;;;8.05;;
10212;SDS011;5150;51.400;6.692;2022-11-20T09:39:05;21.67;;;7.88;;
10212;SDS011;5150;51.400;6.692;2022-11-20T09:42:32;17.02;;;8.30;;
10212;SDS011;5150;51.400;6.692;2022-11-20T09:46:08;17.02;;;8.18;;
10212;SDS011;5150;51.400;6.692;2022-11-20T09:49:43;13.43;;;7.03;;
10212;SDS011;5150;51.400;6.692;2022-11-20T09:53:20;16.10;;;6.95;;
10212;SDS011;5150;51.400;6.692;2022-11-20T09:56:51;15.27;;;8.10;;
10212;SDS011;5150;51.400;6.692;2022-11-20T10:00:18;15.90;;;6.47;;
10212;SDS011;5150;51.400;6.692;2022-11-20T10:03:48;14.90;;;7.10;;
10212;SDS011;5150;51.400;6.692;2022-11-20T10:07:16;13.70;;;6.72;;
10212;SDS011;5150;51.400;6.692;2022-11-20T10:10:54;17.67;;;7.68;;
10212;SDS011;5150;51.400;6.692;2022-11-20T10:14:25;14.25;;;6.80;;
10212;SDS011;5150;51.400;6.692;2022-11-20T10:18:03;9.65;;;7.63;;
10212;SDS011;5150;51.400;6.692;2022-11-20T10:21:37;18.38;;;7.85;;
10212;SDS011;5150;51.400;6.692;2022-11-20T10:25:13;12.82;;;7.40;;
10212;SDS011;5150;51.400;6.692;2022-11-20T10:28:40;13.63;;;7.70;;
10212;SDS011;5150;51.400;6.692;2022-11-20T10:32:21;15.98;;;7.05;;
10212;SDS011;5150;51.400;6.692;2022-11-20T10:35:50;10.15;;;5.93;;
10212;SDS011;5150;51.400;6.692;2022-11-20T10:39:22;10.50;;;6.25;;
10212;SDS011;5150;51.400;6.692;2022-11-20T10:42:53;16.80;;;7.15;;
10212;SDS011;5150;51.400;6.692;2022-11-20T10:46:18;18.75;;;7.60;;
10212;SDS011;5150;51.400;6.692;2022-11-20T10:49:44;8.55;;;6.65;;
10212;SDS011;5150;51.400;6.692;2022-11-20T10:53:14;12.63;;;6.00;;
10212;SDS011;5150;51.400;6.692;2022-11-20T10:56:48;14.50;;;7.53;;
10212;SDS011;5150;51.400;6.692;2022-11-20T11:00:13;11.48;;;6.50;;
10212;SDS011;5150;51.400;6.692;2022-11-20T11:03:38;13.55;;;6.55;;
10212;SDS011;5150;51.400;6.692;2022-11-20T11:07:05;12.00;;;6.28;;
10212;SDS011;5150;51.400;6.692;2022-11-20T11:10:34;16.65;;;6.70;;
10212;SDS011;5150;51.400;6.692;2022-11-20T11:14:07;13.43;;;7.50;;
10212;SDS011;5150;51.400;6.692;2022-11-20T11:17:33;11.95;;;7.47;;
10212;SDS011;5150;51.400;6.692;2022-11-20T11:20:56;9.82;;;6.05;;
10212;SDS011;5150;51.400;6.692;2022-11-20T11:24:22;11.68;;;6.25;;
10212;SDS011;5150;51.400;6.692;2022-11-20T11:28:04;7.88;;;6.05;;
10212;SDS011;5150;51.400;6.692;2022-11-20T11:31:42;12.23;;;6.60;;
10212;SDS011;5150;51.400;6.692;2022-11-20T11:35:06;10.05;;;5.78;;
10212;SDS011;5150;51.400;6.692;2022-11-20T11:38:45;12.35;;;6.75;;
10212;SDS011;5150;51.400;6.692;2022-11-20T11:42:15;7.00;;;5.43;;
10212;SDS011;5150;51.400;6.692;2022-11-20T11:45:40;9.25;;;6.32;;
10212;SDS011;5150;51.400;6.692;2022-11-20T11:49:17;9.32;;;5.82;;
10212;SDS011;5150;51.400;6.692;2022-11-20T11:52:42;10.50;;;5.70;;
10212;SDS011;5150;51.400;6.692;2022-11-20T11:56:08;10.68;;;5.95;;
10212;SDS011;5150;51.400;6.692;2022-11-20T11:59:49;10.05;;;6.13;;
10212;SDS011;5150;51.400;6.692;2022-11-20T12:03:21;10.43;;;6.25;;
10212;SDS011;5150;51.400;6.692;2022-11-20T12:06:51;13.15;;;7.03;;
10212;SDS011;5150;51.400;6.692;2022-11-20T12:10:43;10.50;;;5.70;;
10212;SDS011;5150;51.400;6.692;2022-11-20T12:14:11;12.25;;;5.97;;
10212;SDS011;5150;51.400;6.692;2022-11-20T12:17:40;13.60;;;6.68;;
10212;SDS011;5150;51.400;6.692;2022-11-20T12:21:06;9.15;;;6.03;;
10212;SDS011;5150;51.400;6.692;2022-11-20T12:24:44;10.70;;;6.43;;
10212;SDS011;5150;51.400;6.692;2022-11-20T12:31:58;10.13;;;6.05;;
10212;SDS011;5150;51.400;6.692;2022-11-20T12:35:44;8.80;;;6.35;;
10212;SDS011;5150;51.400;6.692;2022-11-20T12:39:28;10.68;;;6.40;;
10212;SDS011;5150;51.400;6.692;2022-11-20T12:43:03;9.60;;;6.63;;
10212;SDS011;5150;51.400;6.692;2022-11-20T12:46:54;17.17;;;6.82;;
10212;SDS011;5150;51.400;6.692;2022-11-20T12:50:32;10.07;;;6.13;;
10212;SDS011;5150;51.400;6.692;2022-11-20T12:58:30;11.82;;;6.00;;
10212;SDS011;5150;51.400;6.692;2022-11-20T13:02:02;15.98;;;7.15;;
10212;SDS011;5150;51.400;6.692;2022-11-20T13:05:41;12.40;;;6.30;;
10212;SDS011;5150;51.400;6.692;2022-11-20T13:09:13;16.00;;;6.57;;
10212;SDS011;5150;51.400;6.692;2022-11-20T13:12:40;11.57;;;6.28;;
10212;SDS011;5150;51.400;6.692;2022-11-20T13:16:10;16.90;;;5.82;;
10212;SDS011;5150;51.400;6.692;2022-11-20T13:19:39;12.50;;;6.55;;
10212;SDS011;5150;51.400;6.692;2022-11-20T13:23:02;12.93;;;7.30;;
10212;SDS011;5150;51.400;6.692;2022-11-20T13:26:25;15.98;;;7.07;;
10212;SDS011;5150;51.400;6.692;2022-11-20T13:30:02;18.25;;;7.50;;
10212;SDS011;5150;51.400;6.692;2022-11-20T13:33:39;10.82;;;6.47;;
10212;SDS011;5150;51.400;6.692;2022-11-20T13:37:02;22.52;;;7.57;;
10212;SDS011;5150;51.400;6.692;2022-11-20T13:40:26;19.75;;;7.90;;
10212;SDS011;5150;51.400;6.692;2022-11-20T13:43:49;14.95;;;6.35;;
10212;SDS011;5150;51.400;6.692;2022-11-20T13:47:20;17.35;;;6.60;;
10212;SDS011;5150;51.400;6.692;2022-11-20T13:50:49;14.77;;;6.78;;
10212;SDS011;5150;51.400;6.692;2022-11-20T13:54:36;22.55;;;7.70;;
10212;SDS011;5150;51.400;6.692;2022-11-20T13:58:20;14.18;;;7.15;;
10212;SDS011;5150;51.400;6.692;2022-11-20T14:01:54;23.05;;;8.50;;
10212;SDS011;5150;51.400;6.692;2022-11-20T14:05:18;18.38;;;7.15;;
10212;SDS011;5150;51.400;6.692;2022-11-20T14:08:45;15.15;;;7.38;;
10212;SDS011;5150;51.400;6.692;2022-11-20T14:12:14;13.00;;;7.78;;
10212;SDS011;5150;51.400;6.692;2022-11-20T14:15:39;17.15;;;7.57;;
10212;SDS011;5150;51.400;6.692;2022-11-20T14:22:51;20.65;;;7.22;;
10212;SDS011;5150;51.400;6.692;2022-11-20T14:26:17;15.65;;;8.23;;
10212;SDS011;5150;51.400;6.692;2022-11-20T14:29:42;15.07;;;8.02;;
10212;SDS011;5150;51.400;6.692;2022-11-20T14:33:06;14.35;;;7.53;;
10212;SDS011;5150;51.400;6.692;2022-11-20T14:36:33;21.63;;;9.18;;
10212;SDS011;5150;51.400;6.692;2022-11-20T14:39:56;18.60;;;8.00;;
10212;SDS011;5150;51.400;6.692;2022-11-20T14:43:23;15.82;;;7.78;;
10212;SDS011;5150;51.400;6.692;2022-11-20T14:46:47;15.52;;;7.78;;
10212;SDS011;5150;51.400;6.692;2022-11-20T14:50:12;22.70;;;7.93;;
10212;SDS011;5150;51.400;6.692;2022-11-20T14:53:38;12.35;;;7.43;;
10212;SDS011;5150;51.400;6.692;2022-11-20T14:57:02;14.85;;;7.72;;
10212;SDS011;5150;51.400;6.692;2022-11-20T15:00:27;16.83;;;8.18;;
10212;SDS011;5150;51.400;6.692;2022-11-20T15:04:01;16.95;;;7.38;;
10212;SDS011;5150;51.400;6.692;2022-11-20T15:07:29;18.17;;;8.38;;
10212;SDS011;5150;51.400;6.692;2022-11-20T15:10:55;15.38;;;7.55;;
10212;SDS011;5150;51.400;6.692;2022-11-20T15:14:19;16.67;;;7.57;;
10212;SDS011;5150;51.400;6.692;2022-11-20T15:17:44;16.98;;;8.07;;
10212;SDS011;5150;51.400;6.692;2022-11-20T15:21:09;11.95;;;6.65;;
10212;SDS011;5150;51.400;6.692;2022-11-20T15:24:33;18.40;;;7.78;;
10212;SDS011;5150;51.400;6.692;2022-11-20T15:27:56;13.20;;;6.32;;
10212;SDS011;5150;51.400;6.692;2022-11-20T15:31:20;17.08;;;7.47;;
10212;SDS011;5150;51.400;6.692;2022-11-20T15:34:46;19.63;;;6.97;;
10212;SDS011;5150;51.400;6.692;2022-11-20T15:38:09;14.20;;;8.07;;
10212;SDS011;5150;51.400;6.692;2022-11-20T15:41:32;16.25;;;8.05;;
10212;SDS011;5150;51.400;6.692;2022-11-20T15:44:55;19.73;;;8.32;;
10212;SDS011;5150;51.400;6.692;2022-11-20T15:48:19;10.43;;;6.07;;
10212;SDS011;5150;51.400;6.692;2022-11-20T15:51:46;15.82;;;6.85;;
10212;SDS011;5150;51.400;6.692;2022-11-20T15:55:10;18.15;;;7.47;;
10212;SDS011;5150;51.400;6.692;2022-11-20T15:58:33;19.08;;;8.18;;
10212;SDS011;5150;51.400;6.692;2022-11-20T16:01:56;17.98;;;8.05;;
10212;SDS011;5150;51.400;6.692;2022-11-20T16:05:19;19.35;;;8.02;;
10212;SDS011;5150;51.400;6.692;2022-11-20T16:08:45;21.67;;;8.13;;
10212;SDS011;5150;51.400;6.692;2022-11-20T16:12:08;19.35;;;7.55;;
10212;SDS011;5150;51.400;6.692;2022-11-20T16:15:56;19.23;;;7.60;;
10212;SDS011;5150;51.400;6.692;2022-11-20T16:19:19;20.65;;;8.25;;
10212;SDS011;5150;51.400;6.692;2022-11-20T16:22:42;17.27;;;8.32;;
10212;SDS011;5150;51.400;6.692;2022-11-20T16:26:10;22.58;;;8.48;;
10212;SDS011;5150;51.400;6.692;2022-11-20T16:29:33;24.75;;;8.02;;
10212;SDS011;5150;51.400;6.692;2022-11-20T16:32:56;25.95;;;8.57;;
10212;SDS011;5150;51.400;6.692;2022-11-20T16:36:19;23.85;;;8.45;;
10212;SDS011;5150;51.400;6.692;2022-11-20T16:39:44;19.42;;;8.35;;
10212;SDS011;5150;51.400;6.692;2022-11-20T16:43:09;20.02;;;8.35;;
10212;SDS011;5150;51.400;6.692;2022-11-20T16:46:33;26.95;;;9.07;;
10212;SDS011;5150;51.400;6.692;2022-11-20T16:49:56;21.80;;;10.00;;
10212;SDS011;5150;51.400;6.692;2022-11-20T16:53:20;16.67;;;7.53;;
10212;SDS011;5150;51.400;6.692;2022-11-20T16:56:43;18.98;;;8.30;;
10212;SDS011;5150;51.400;6.692;2022-11-20T17:00:10;24.85;;;8.88;;
10212;SDS011;5150;51.400;6.692;2022-11-20T17:03:33;20.52;;;8.32;;
10212;SDS011;5150;51.400;6.692;2022-11-20T17:06:56;20.48;;;8.45;;
10212;SDS011;5150;51.400;6.692;2022-11-20T17:10:27;18.80;;;8.15;;
10212;SDS011;5150;51.400;6.692;2022-11-20T17:13:50;18.50;;;8.20;;
10212;SDS011;5150;51.400;6.692;2022-11-20T17:17:17;15.13;;;9.35;;
10212;SDS011;5150;51.400;6.692;2022-11-20T17:20:40;18.42;;;8.88;;
10212;SDS011;5150;51.400;6.692;2022-11-20T17:24:03;24.00;;;9.65;;
10212;SDS011;5150;51.400;6.692;2022-11-20T17:27:28;16.73;;;8.43;;
10212;SDS011;5150;51.400;6.692;2022-11-20T17:30:51;15.95;;;8.68;;
10212;SDS011;5150;51.400;6.692;2022-11-20T17:34:15;15.40;;;8.60;;
10212;SDS011;5150;51.400;6.692;2022-11-20T17:37:38;20.33;;;8.80;;
10212;SDS011;5150;51.400;6.692;2022-11-20T17:41:02;15.30;;;8.05;;
10212;SDS011;5150;51.400;6.692;2022-11-20T17:44:26;23.27;;;8.48;;
10212;SDS011;5150;51.400;6.692;2022-11-20T17:47:49;19.75;;;10.38;;
10212;SDS011;5150;51.400;6.692;2022-11-20T17:51:14;18.88;;;8.55;;
10212;SDS011;5150;51.400;6.692;2022-11-20T17:54:38;25.60;;;9.70;;
10212;SDS011;5150;51.400;6.692;2022-11-20T17:58:01;16.52;;;7.60;;
10212;SDS011;5150;51.400;6.692;2022-11-20T18:01:26;13.57;;;7.78;;
10212;SDS011;5150;51.400;6.692;2022-11-20T18:04:49;12.30;;;7.88;;
10212;SDS011;5150;51.400;6.692;2022-11-20T18:08:14;16.92;;;9.32;;
10212;SDS011;5150;51.400;6.692;2022-11-20T18:11:37;11.15;;;7.50;;
10212;SDS011;5150;51.400;6.692;2022-11-20T18:15:01;16.58;;;8.20;;
10212;SDS011;5150;51.400;6.692;2022-11-20T18:18:24;15.98;;;7.88;;
10212;SDS011;5150;51.400;6.692;2022-11-20T18:21:47;11.82;;;7.38;;
10212;SDS011;5150;51.400;6.692;2022-11-20T18:25:12;14.00;;;7.85;;
10212;SDS011;5150;51.400;6.692;2022-11-20T18:28:35;17.05;;;8.10;;
10212;SDS011;5150;51.400;6.692;2022-11-20T18:31:59;13.15;;;7.72;;
10212;SDS011;5150;51.400;6.692;2022-11-20T18:35:22;12.38;;;8.05;;
10212;SDS011;5150;51.400;6.692;2022-11-20T18:38:45;20.90;;;8.57;;
10212;SDS011;5150;51.400;6.692;2022-11-20T18:42:12;14.90;;;7.53;;
10212;SDS011;5150;51.400;6.692;2022-11-20T18:46:00;14.50;;;8.35;;
10212;SDS011;5150;51.400;6.692;2022-11-20T18:49:23;19.30;;;8.30;;
10212;SDS011;5150;51.400;6.692;2022-11-20T18:52:47;18.42;;;7.45;;
10212;SDS011;5150;51.400;6.692;2022-11-20T18:56:10;19.45;;;8.15;;
10212;SDS011;5150;51.400;6.692;2022-11-20T18:59:34;22.63;;;7.90;;
10212;SDS011;5150;51.400;6.692;2022-11-20T19:02:57;12.93;;;7.88;;
10212;SDS011;5150;51.400;6.692;2022-11-20T19:06:20;18.63;;;7.97;;
10212;SDS011;5150;51.400;6.692;2022-11-20T19:09:44;16.27;;;8.07;;
10212;SDS011;5150;51.400;6.692;2022-11-20T19:13:10;14.65;;;7.25;;
10212;SDS011;5150;51.400;6.692;2022-11-20T19:16:34;11.63;;;6.90;;
10212;SDS011;5150;51.400;6.692;2022-11-20T19:19:58;9.35;;;5.88;;
10212;SDS011;5150;51.400;6.692;2022-11-20T19:23:21;19.73;;;6.35;;
10212;SDS011;5150;51.400;6.692;2022-11-20T19:26:46;17.45;;;6.97;;
10212;SDS011;5150;51.400;6.692;2022-11-20T19:30:10;21.42;;;7.30;;
10212;SDS011;5150;51.400;6.692;2022-11-20T19:33:35;11.55;;;6.20;;
10212;SDS011;5150;51.400;6.692;2022-11-20T19:36:58;15.35;;;7.22;;
10212;SDS011;5150;51.400;6.692;2022-11-20T19:40:21;11.20;;;7.25;;
10212;SDS011;5150;51.400;6.692;2022-11-20T19:43:44;11.45;;;6.00;;
10212;SDS011;5150;51.400;6.692;2022-11-20T19:47:09;13.63;;;7.32;;
10212;SDS011;5150;51.400;6.692;2022-11-20T19:50:36;18.33;;;6.78;;
10212;SDS011;5150;51.400;6.692;2022-11-20T19:53:59;12.32;;;5.88;;
10212;SDS011;5150;51.400;6.692;2022-11-20T19:57:23;14.45;;;6.85;;
10212;SDS011;5150;51.400;6.692;2022-11-20T20:00:46;18.35;;;9.15;;
10212;SDS011;5150;51.400;6.692;2022-11-20T20:04:09;15.32;;;6.25;;
10212;SDS011;5150;51.400;6.692;2022-11-20T20:07:33;18.20;;;6.35;;
10212;SDS011;5150;51.400;6.692;2022-11-20T20:10:56;18.15;;;6.32;;
10212;SDS011;5150;51.400;6.692;2022-11-20T20:14:20;17.25;;;6.75;;
10212;SDS011;5150;51.400;6.692;2022-11-20T20:17:43;15.38;;;6.05;;
10212;SDS011;5150;51.400;6.692;2022-11-20T20:21:06;22.52;;;8.48;;
10212;SDS011;5150;51.400;6.692;2022-11-20T20:24:32;19.33;;;7.35;;
10212;SDS011;5150;51.400;6.692;2022-11-20T20:27:55;24.50;;;7.78;;
10212;SDS011;5150;51.400;6.692;2022-11-20T20:31:19;12.57;;;7.57;;
10212;SDS011;5150;51.400;6.692;2022-11-20T20:34:43;14.50;;;7.65;;
10212;SDS011;5150;51.400;6.692;2022-11-20T20:38:06;14.95;;;6.93;;
10212;SDS011;5150;51.400;6.692;2022-11-20T20:41:30;17.17;;;7.60;;
10212;SDS011;5150;51.400;6.692;2022-11-20T20:44:53;16.60;;;7.70;;
10212;SDS011;5150;51.400;6.692;2022-11-20T20:48:28;17.27;;;6.95;;
10212;SDS011;5150;51.400;6.692;2022-11-20T20:51:51;15.20;;;7.43;;
10212;SDS011;5150;51.400;6.692;2022-11-20T20:55:14;22.63;;;8.35;;
10212;SDS011;5150;51.400;6.692;2022-11-20T20:58:39;16.23;;;6.65;;
10212;SDS011;5150;51.400;6.692;2022-11-20T21:02:03;12.85;;;7.30;;
10212;SDS011;5150;51.400;6.692;2022-11-20T21:05:26;15.00;;;7.03;;